sensor_id;sensor_type;location;lat;lon;timestamp;temperature;humidity
70695;DHT22;58269;52.246;21.104;2022-12-18T00:00:23;5.03;46.22
70695;DHT22;58269;52.246;21.104;2022-12-18T00:02:28;4.94;45.59
70695;DHT22;58269;52.246;21.104;2022-12-18T00:04:32;4.98;46.04
70695;DHT22;58269;52.246;21.104;2022-12-18T00:06:36;5.03;45.95
70695;DHT22;58269;52.246;21.104;2022-12-18T00:08:38;5.07;46.10
70695;DHT22;58269;52.246;21.104;2022-12-18T00:10:39;5.12;45.65
70695;DHT22;58269;52.246;21.104;2022-12-18T00:12:41;5.11;45.87
70695;DHT22;58269;52.246;21.104;2022-12-18T00:14:43;5.08;45.49
70695;DHT22;58269;52.246;21.104;2022-12-18T00:16:45;5.12;45.63
70695;DHT22;58269;52.246;21.104;2022-12-18T00:18:48;5.10;45.42
70695;DHT22;58269;52.246;21.104;2022-12-18T00:20:49;5.18;45.76
70695;DHT22;58269;52.246;21.104;2022-12-18T00:22:52;5.25;45.67
70695;DHT22;58269;52.246;21.104;2022-12-18T00:24:54;5.10;44.84
70695;DHT22;58269;52.246;21.104;2022-12-18T00:26:55;5.10;45.48
70695;DHT22;58269;52.246;21.104;2022-12-18T00:29:02;5.10;45.48
70695;DHT22;58269;52.246;21.104;2022-12-18T00:31:07;5.12;45.47
70695;DHT22;58269;52.246;21.104;2022-12-18T00:33:09;5.14;45.32
70695;DHT22;58269;52.246;21.104;2022-12-18T00:35:11;5.12;45.47
70695;DHT22;58269;52.246;21.104;2022-12-18T00:37:12;5.11;45.51
70695;DHT22;58269;52.246;21.104;2022-12-18T00:39:14;5.10;45.35
70695;DHT22;58269;52.246;21.104;2022-12-18T00:41:18;5.11;45.51
70695;DHT22;58269;52.246;21.104;2022-12-18T00:43:21;5.15;45.66
70695;DHT22;58269;52.246;21.104;2022-12-18T00:45:27;5.18;45.56
70695;DHT22;58269;52.246;21.104;2022-12-18T00:47:28;5.17;45.46
70695;DHT22;58269;52.246;21.104;2022-12-18T00:49:30;5.11;45.41
70695;DHT22;58269;52.246;21.104;2022-12-18T00:51:31;5.07;45.23
70695;DHT22;58269;52.246;21.104;2022-12-18T00:53:33;5.03;45.32
70695;DHT22;58269;52.246;21.104;2022-12-18T00:55:34;5.03;45.38
70695;DHT22;58269;52.246;21.104;2022-12-18T00:57:36;4.97;45.33
70695;DHT22;58269;52.246;21.104;2022-12-18T00:59:38;4.93;45.26
70695;DHT22;58269;52.246;21.104;2022-12-18T01:01:39;4.91;45.48
70695;DHT22;58269;52.246;21.104;2022-12-18T01:03:41;4.91;45.49
70695;DHT22;58269;52.246;21.104;2022-12-18T01:05:42;4.74;44.35
70695;DHT22;58269;52.246;21.104;2022-12-18T01:07:44;4.45;44.52
70695;DHT22;58269;52.246;21.104;2022-12-18T01:09:45;4.48;45.54
70695;DHT22;58269;52.246;21.104;2022-12-18T01:11:46;4.52;45.99
70695;DHT22;58269;52.246;21.104;2022-12-18T01:13:48;4.55;46.16
70695;DHT22;58269;52.246;21.104;2022-12-18T01:15:50;4.64;46.21
70695;DHT22;58269;52.246;21.104;2022-12-18T01:17:52;4.74;46.23
70695;DHT22;58269;52.246;21.104;2022-12-18T01:19:54;4.81;46.16
70695;DHT22;58269;52.246;21.104;2022-12-18T01:21:55;4.87;46.01
70695;DHT22;58269;52.246;21.104;2022-12-18T01:23:57;4.98;46.00
70695;DHT22;58269;52.246;21.104;2022-12-18T01:26:03;5.10;46.04
70695;DHT22;58269;52.246;21.104;2022-12-18T01:28:02;5.12;45.63
70695;DHT22;58269;52.246;21.104;2022-12-18T01:30:04;5.22;45.82
70695;DHT22;58269;52.246;21.104;2022-12-18T01:32:05;5.12;44.26
70695;DHT22;58269;52.246;21.104;2022-12-18T01:34:08;5.12;45.40
70695;DHT22;58269;52.246;21.104;2022-12-18T01:36:18;5.29;45.21
70695;DHT22;58269;52.246;21.104;2022-12-18T01:38:20;4.87;44.43
70695;DHT22;58269;52.246;21.104;2022-12-18T01:40:21;4.96;45.32
70695;DHT22;58269;52.246;21.104;2022-12-18T01:42:23;5.14;45.77
70695;DHT22;58269;52.246;21.104;2022-12-18T01:44:54;5.25;45.52
70695;DHT22;58269;52.246;21.104;2022-12-18T01:46:57;5.07;45.24
70695;DHT22;58269;52.246;21.104;2022-12-18T01:49:00;5.17;45.78
70695;DHT22;58269;52.246;21.104;2022-12-18T01:51:02;5.27;45.84
70695;DHT22;58269;52.246;21.104;2022-12-18T01:53:13;5.05;44.53
70695;DHT22;58269;52.246;21.104;2022-12-18T01:55:18;5.11;45.78
70695;DHT22;58269;52.246;21.104;2022-12-18T01:57:21;5.11;45.00
70695;DHT22;58269;52.246;21.104;2022-12-18T01:59:23;4.83;44.75
70695;DHT22;58269;52.246;21.104;2022-12-18T02:01:25;4.79;46.16
70695;DHT22;58269;52.246;21.104;2022-12-18T02:03:27;4.81;46.11
70695;DHT22;58269;52.246;21.104;2022-12-18T02:05:50;4.97;46.56
70695;DHT22;58269;52.246;21.104;2022-12-18T02:10:12;5.11;46.53
70695;DHT22;58269;52.246;21.104;2022-12-18T02:12:16;5.15;46.38
70695;DHT22;58269;52.246;21.104;2022-12-18T02:16:43;5.18;45.62
70695;DHT22;58269;52.246;21.104;2022-12-18T02:18:46;5.17;45.82
70695;DHT22;58269;52.246;21.104;2022-12-18T02:21:12;5.07;45.79
70695;DHT22;58269;52.246;21.104;2022-12-18T02:27:44;4.83;45.62
70695;DHT22;58269;52.246;21.104;2022-12-18T02:29:51;4.79;45.56
70695;DHT22;58269;52.246;21.104;2022-12-18T02:31:58;4.72;45.51
70695;DHT22;58269;52.246;21.104;2022-12-18T02:34:02;4.73;45.82
70695;DHT22;58269;52.246;21.104;2022-12-18T02:36:07;4.72;45.78
70695;DHT22;58269;52.246;21.104;2022-12-18T02:38:11;4.76;45.96
70695;DHT22;58269;52.246;21.104;2022-12-18T02:40:14;4.81;45.82
70695;DHT22;58269;52.246;21.104;2022-12-18T02:42:16;4.87;45.89
70695;DHT22;58269;52.246;21.104;2022-12-18T02:44:18;4.73;45.30
70695;DHT22;58269;52.246;21.104;2022-12-18T02:46:32;4.76;45.49
70695;DHT22;58269;52.246;21.104;2022-12-18T02:48:36;4.76;45.49
70695;DHT22;58269;52.246;21.104;2022-12-18T02:50:51;4.72;45.45
70695;DHT22;58269;52.246;21.104;2022-12-18T02:53:10;4.74;45.60
70695;DHT22;58269;52.246;21.104;2022-12-18T03:00:12;4.81;45.28
70695;DHT22;58269;52.246;21.104;2022-12-18T03:02:19;4.72;44.95
70695;DHT22;58269;52.246;21.104;2022-12-18T03:06:37;4.64;45.26
70695;DHT22;58269;52.246;21.104;2022-12-18T03:08:41;4.70;45.36
70695;DHT22;58269;52.246;21.104;2022-12-18T03:10:46;4.73;45.06
70695;DHT22;58269;52.246;21.104;2022-12-18T03:12:58;4.69;44.95
70695;DHT22;58269;52.246;21.104;2022-12-18T03:15:18;4.70;44.97
70695;DHT22;58269;52.246;21.104;2022-12-18T03:17:23;4.67;44.97
70695;DHT22;58269;52.246;21.104;2022-12-18T03:19:28;4.66;44.98
70695;DHT22;58269;52.246;21.104;2022-12-18T03:21:47;4.67;45.02
70695;DHT22;58269;52.246;21.104;2022-12-18T03:23:50;4.59;45.02
70695;DHT22;58269;52.246;21.104;2022-12-18T03:25:56;4.56;45.00
70695;DHT22;58269;52.246;21.104;2022-12-18T03:27:59;4.46;45.11
70695;DHT22;58269;52.246;21.104;2022-12-18T03:30:08;4.30;45.29
70695;DHT22;58269;52.246;21.104;2022-12-18T03:32:15;4.21;45.34
70695;DHT22;58269;52.246;21.104;2022-12-18T03:34:21;4.18;45.47
70695;DHT22;58269;52.246;21.104;2022-12-18T03:36:23;4.18;45.43
70695;DHT22;58269;52.246;21.104;2022-12-18T03:38:25;4.12;45.51
70695;DHT22;58269;52.246;21.104;2022-12-18T03:42:55;4.00;45.55
70695;DHT22;58269;52.246;21.104;2022-12-18T03:45:07;3.97;45.59
70695;DHT22;58269;52.246;21.104;2022-12-18T03:47:16;3.95;45.69
70695;DHT22;58269;52.246;21.104;2022-12-18T03:49:33;4.02;45.84
70695;DHT22;58269;52.246;21.104;2022-12-18T03:51:45;4.12;45.80
70695;DHT22;58269;52.246;21.104;2022-12-18T03:54:00;4.25;45.89
70695;DHT22;58269;52.246;21.104;2022-12-18T03:56:07;4.39;45.75
70695;DHT22;58269;52.246;21.104;2022-12-18T03:58:13;4.53;45.61
70695;DHT22;58269;52.246;21.104;2022-12-18T04:00:18;4.63;45.55
70695;DHT22;58269;52.246;21.104;2022-12-18T04:02:25;4.69;45.24
70695;DHT22;58269;52.246;21.104;2022-12-18T04:04:27;4.74;45.25
70695;DHT22;58269;52.246;21.104;2022-12-18T04:06:30;4.79;45.18
70695;DHT22;58269;52.246;21.104;2022-12-18T04:08:33;4.81;45.15
70695;DHT22;58269;52.246;21.104;2022-12-18T04:10:37;4.87;45.10
70695;DHT22;58269;52.246;21.104;2022-12-18T04:12:39;4.97;45.25
70695;DHT22;58269;52.246;21.104;2022-12-18T04:14:40;5.12;45.34
70695;DHT22;58269;52.246;21.104;2022-12-18T04:16:42;5.18;45.07
70695;DHT22;58269;52.246;21.104;2022-12-18T04:18:45;5.19;44.87
70695;DHT22;58269;52.246;21.104;2022-12-18T04:20:48;5.21;44.49
70695;DHT22;58269;52.246;21.104;2022-12-18T04:22:51;5.12;44.42
70695;DHT22;58269;52.246;21.104;2022-12-18T04:24:53;5.07;44.43
70695;DHT22;58269;52.246;21.104;2022-12-18T04:26:56;5.03;44.39
70695;DHT22;58269;52.246;21.104;2022-12-18T04:28:59;4.93;44.30
70695;DHT22;58269;52.246;21.104;2022-12-18T04:31:00;4.83;44.43
70695;DHT22;58269;52.246;21.104;2022-12-18T04:33:02;4.80;44.45
70695;DHT22;58269;52.246;21.104;2022-12-18T04:35:05;4.76;44.58
70695;DHT22;58269;52.246;21.104;2022-12-18T04:37:09;4.72;44.65
70695;DHT22;58269;52.246;21.104;2022-12-18T04:39:11;4.74;44.72
70695;DHT22;58269;52.246;21.104;2022-12-18T04:41:12;4.79;44.80
70695;DHT22;58269;52.246;21.104;2022-12-18T04:43:14;4.80;44.86
70695;DHT22;58269;52.246;21.104;2022-12-18T04:45:15;4.86;44.83
70695;DHT22;58269;52.246;21.104;2022-12-18T04:47:17;4.84;44.69
70695;DHT22;58269;52.246;21.104;2022-12-18T04:49:18;4.81;44.65
70695;DHT22;58269;52.246;21.104;2022-12-18T04:51:19;4.80;44.67
70695;DHT22;58269;52.246;21.104;2022-12-18T04:53:21;4.79;44.64
70695;DHT22;58269;52.246;21.104;2022-12-18T04:55:22;4.80;44.68
70695;DHT22;58269;52.246;21.104;2022-12-18T04:57:23;4.81;44.74
70695;DHT22;58269;52.246;21.104;2022-12-18T04:59:25;4.86;44.80
70695;DHT22;58269;52.246;21.104;2022-12-18T05:01:26;4.97;44.98
70695;DHT22;58269;52.246;21.104;2022-12-18T05:03:27;5.00;45.00
70695;DHT22;58269;52.246;21.104;2022-12-18T05:05:29;5.01;44.83
70695;DHT22;58269;52.246;21.104;2022-12-18T05:07:30;5.00;44.73
70695;DHT22;58269;52.246;21.104;2022-12-18T05:09:31;5.03;44.68
70695;DHT22;58269;52.246;21.104;2022-12-18T05:11:33;5.10;44.61
70695;DHT22;58269;52.246;21.104;2022-12-18T05:13:34;5.14;44.57
70695;DHT22;58269;52.246;21.104;2022-12-18T05:15:36;5.17;44.53
70695;DHT22;58269;52.246;21.104;2022-12-18T05:17:38;5.22;44.42
70695;DHT22;58269;52.246;21.104;2022-12-18T05:19:39;5.19;44.22
70695;DHT22;58269;52.246;21.104;2022-12-18T05:21:41;5.24;44.20
70695;DHT22;58269;52.246;21.104;2022-12-18T05:23:42;5.21;43.81
70695;DHT22;58269;52.246;21.104;2022-12-18T05:25:52;5.24;44.10
70695;DHT22;58269;52.246;21.104;2022-12-18T05:27:54;5.12;43.16
70695;DHT22;58269;52.246;21.104;2022-12-18T05:29:55;5.18;43.96
70695;DHT22;58269;52.246;21.104;2022-12-18T05:31:56;5.22;43.43
70695;DHT22;58269;52.246;21.104;2022-12-18T05:33:57;5.14;43.91
70695;DHT22;58269;52.246;21.104;2022-12-18T05:36:00;5.21;44.33
70695;DHT22;58269;52.246;21.104;2022-12-18T05:38:01;5.17;43.45
70695;DHT22;58269;52.246;21.104;2022-12-18T05:40:05;5.11;44.07
70695;DHT22;58269;52.246;21.104;2022-12-18T05:42:06;5.22;44.42
70695;DHT22;58269;52.246;21.104;2022-12-18T05:44:08;5.15;43.48
70695;DHT22;58269;52.246;21.104;2022-12-18T05:46:12;5.18;44.16
70695;DHT22;58269;52.246;21.104;2022-12-18T05:48:14;5.24;43.58
70695;DHT22;58269;52.246;21.104;2022-12-18T05:50:16;5.08;43.44
70695;DHT22;58269;52.246;21.104;2022-12-18T05:52:17;5.17;44.27
70695;DHT22;58269;52.246;21.104;2022-12-18T05:54:18;5.21;42.88
70695;DHT22;58269;52.246;21.104;2022-12-18T05:56:21;4.96;43.23
70695;DHT22;58269;52.246;21.104;2022-12-18T05:58:23;5.01;43.97
70695;DHT22;58269;52.246;21.104;2022-12-18T06:00:25;5.03;44.19
70695;DHT22;58269;52.246;21.104;2022-12-18T06:02:27;5.11;44.26
70695;DHT22;58269;52.246;21.104;2022-12-18T06:04:28;5.15;44.05
70695;DHT22;58269;52.246;21.104;2022-12-18T06:06:30;5.19;44.24
70695;DHT22;58269;52.246;21.104;2022-12-18T06:08:31;5.22;44.15
70695;DHT22;58269;52.246;21.104;2022-12-18T06:10:32;5.22;44.05
70695;DHT22;58269;52.246;21.104;2022-12-18T06:12:33;5.12;43.19
70695;DHT22;58269;52.246;21.104;2022-12-18T06:14:34;4.70;42.29
70695;DHT22;58269;52.246;21.104;2022-12-18T06:16:37;4.42;43.51
70695;DHT22;58269;52.246;21.104;2022-12-18T06:18:38;4.69;44.90
70695;DHT22;58269;52.246;21.104;2022-12-18T06:20:39;4.91;44.96
70695;DHT22;58269;52.246;21.104;2022-12-18T06:22:42;4.98;44.36
70695;DHT22;58269;52.246;21.104;2022-12-18T06:24:43;4.91;44.15
70695;DHT22;58269;52.246;21.104;2022-12-18T06:26:44;4.76;44.10
70695;DHT22;58269;52.246;21.104;2022-12-18T06:28:45;4.67;44.59
70695;DHT22;58269;52.246;21.104;2022-12-18T06:30:47;4.62;44.61
70695;DHT22;58269;52.246;21.104;2022-12-18T06:32:49;4.69;44.81
70695;DHT22;58269;52.246;21.104;2022-12-18T06:34:51;4.62;44.63
70695;DHT22;58269;52.246;21.104;2022-12-18T06:36:52;4.63;44.74
70695;DHT22;58269;52.246;21.104;2022-12-18T06:38:53;4.63;44.82
70695;DHT22;58269;52.246;21.104;2022-12-18T06:40:55;4.63;44.76
70695;DHT22;58269;52.246;21.104;2022-12-18T06:42:56;4.59;44.75
70695;DHT22;58269;52.246;21.104;2022-12-18T06:44:57;4.56;44.78
70695;DHT22;58269;52.246;21.104;2022-12-18T06:46:59;4.64;44.86
70695;DHT22;58269;52.246;21.104;2022-12-18T06:49:00;4.70;44.62
70695;DHT22;58269;52.246;21.104;2022-12-18T06:51:02;4.73;44.71
70695;DHT22;58269;52.246;21.104;2022-12-18T06:53:03;4.73;44.36
70695;DHT22;58269;52.246;21.104;2022-12-18T06:55:07;4.76;44.59
70695;DHT22;58269;52.246;21.104;2022-12-18T06:57:09;4.77;44.52
70695;DHT22;58269;52.246;21.104;2022-12-18T06:59:12;4.83;44.38
70695;DHT22;58269;52.246;21.104;2022-12-18T07:01:13;4.86;44.33
70695;DHT22;58269;52.246;21.104;2022-12-18T07:03:15;4.86;44.34
70695;DHT22;58269;52.246;21.104;2022-12-18T07:05:16;4.79;43.78
70695;DHT22;58269;52.246;21.104;2022-12-18T07:07:19;4.72;43.85
70695;DHT22;58269;52.246;21.104;2022-12-18T07:09:20;4.66;44.07
70695;DHT22;58269;52.246;21.104;2022-12-18T07:11:22;4.66;44.19
70695;DHT22;58269;52.246;21.104;2022-12-18T07:13:23;4.48;43.12
70695;DHT22;58269;52.246;21.104;2022-12-18T07:15:25;4.02;43.46
70695;DHT22;58269;52.246;21.104;2022-12-18T07:17:26;3.71;42.91
70695;DHT22;58269;52.246;21.104;2022-12-18T07:19:28;3.47;43.27
70695;DHT22;58269;52.246;21.104;2022-12-18T07:21:30;3.27;43.59
70695;DHT22;58269;52.246;21.104;2022-12-18T07:23:32;3.10;44.25
70695;DHT22;58269;52.246;21.104;2022-12-18T07:25:35;3.02;44.77
70695;DHT22;58269;52.246;21.104;2022-12-18T07:27:36;2.99;44.66
70695;DHT22;58269;52.246;21.104;2022-12-18T07:29:38;2.95;44.95
70695;DHT22;58269;52.246;21.104;2022-12-18T07:31:39;2.89;45.07
70695;DHT22;58269;52.246;21.104;2022-12-18T07:33:40;2.85;45.53
70695;DHT22;58269;52.246;21.104;2022-12-18T07:35:42;2.84;45.87
70695;DHT22;58269;52.246;21.104;2022-12-18T07:37:43;2.87;46.02
70695;DHT22;58269;52.246;21.104;2022-12-18T07:39:45;2.87;46.09
70695;DHT22;58269;52.246;21.104;2022-12-18T07:41:46;2.87;46.18
70695;DHT22;58269;52.246;21.104;2022-12-18T07:43:50;2.79;46.42
70695;DHT22;58269;52.246;21.104;2022-12-18T07:45:51;2.69;46.23
70695;DHT22;58269;52.246;21.104;2022-12-18T07:47:53;2.64;46.25
70695;DHT22;58269;52.246;21.104;2022-12-18T07:49:54;2.61;46.36
70695;DHT22;58269;52.246;21.104;2022-12-18T07:51:55;2.58;46.83
70695;DHT22;58269;52.246;21.104;2022-12-18T07:53:57;2.56;47.22
70695;DHT22;58269;52.246;21.104;2022-12-18T07:56:01;2.53;47.05
70695;DHT22;58269;52.246;21.104;2022-12-18T07:58:03;2.94;49.32
70695;DHT22;58269;52.246;21.104;2022-12-18T08:00:06;3.38;49.55
70695;DHT22;58269;52.246;21.104;2022-12-18T08:02:10;3.70;49.47
70695;DHT22;58269;52.246;21.104;2022-12-18T08:04:11;3.92;49.15
70695;DHT22;58269;52.246;21.104;2022-12-18T08:06:15;4.09;48.43
70695;DHT22;58269;52.246;21.104;2022-12-18T08:08:17;4.18;48.42
70695;DHT22;58269;52.246;21.104;2022-12-18T08:10:19;4.28;47.63
70695;DHT22;58269;52.246;21.104;2022-12-18T08:12:21;4.36;47.92
70695;DHT22;58269;52.246;21.104;2022-12-18T08:14:22;4.43;47.56
70695;DHT22;58269;52.246;21.104;2022-12-18T08:16:23;4.11;46.35
70695;DHT22;58269;52.246;21.104;2022-12-18T08:18:25;3.98;46.79
70695;DHT22;58269;52.246;21.104;2022-12-18T08:20:26;4.15;47.60
70695;DHT22;58269;52.246;21.104;2022-12-18T08:22:27;4.30;47.13
70695;DHT22;58269;52.246;21.104;2022-12-18T08:24:29;4.42;46.96
70695;DHT22;58269;52.246;21.104;2022-12-18T08:26:31;4.56;47.07
70695;DHT22;58269;52.246;21.104;2022-12-18T08:28:32;4.62;46.20
70695;DHT22;58269;52.246;21.104;2022-12-18T08:30:33;4.70;46.80
70695;DHT22;58269;52.246;21.104;2022-12-18T08:32:34;4.79;46.74
70695;DHT22;58269;52.246;21.104;2022-12-18T08:34:36;4.84;46.32
70695;DHT22;58269;52.246;21.104;2022-12-18T08:36:37;4.88;46.37
70695;DHT22;58269;52.246;21.104;2022-12-18T08:38:39;4.96;46.19
70695;DHT22;58269;52.246;21.104;2022-12-18T08:40:40;4.98;45.93
70695;DHT22;58269;52.246;21.104;2022-12-18T08:42:42;5.05;45.96
70695;DHT22;58269;52.246;21.104;2022-12-18T08:45:02;5.12;45.59
70695;DHT22;58269;52.246;21.104;2022-12-18T08:47:05;5.17;45.68
70695;DHT22;58269;52.246;21.104;2022-12-18T08:49:07;5.15;45.34
70695;DHT22;58269;52.246;21.104;2022-12-18T08:51:08;5.15;45.23
70695;DHT22;58269;52.246;21.104;2022-12-18T08:53:10;5.08;44.73
70695;DHT22;58269;52.246;21.104;2022-12-18T08:55:12;4.88;44.51
70695;DHT22;58269;52.246;21.104;2022-12-18T08:57:13;4.72;44.48
70695;DHT22;58269;52.246;21.104;2022-12-18T08:59:20;4.87;45.64
70695;DHT22;58269;52.246;21.104;2022-12-18T09:01:18;5.00;45.28
70695;DHT22;58269;52.246;21.104;2022-12-18T09:03:20;4.67;43.87
70695;DHT22;58269;52.246;21.104;2022-12-18T09:05:23;4.57;45.49
70695;DHT22;58269;52.246;21.104;2022-12-18T09:07:24;4.86;46.52
70695;DHT22;58269;52.246;21.104;2022-12-18T09:09:26;5.17;46.63
70695;DHT22;58269;52.246;21.104;2022-12-18T09:11:28;5.18;44.69
70695;DHT22;58269;52.246;21.104;2022-12-18T09:13:30;4.98;45.20
70695;DHT22;58269;52.246;21.104;2022-12-18T09:15:31;5.17;46.19
70695;DHT22;58269;52.246;21.104;2022-12-18T09:17:32;5.24;45.25
70695;DHT22;58269;52.246;21.104;2022-12-18T09:19:34;4.98;45.46
70695;DHT22;58269;52.246;21.104;2022-12-18T09:21:36;5.17;46.42
70695;DHT22;58269;52.246;21.104;2022-12-18T09:23:38;5.19;45.05
70695;DHT22;58269;52.246;21.104;2022-12-18T09:25:40;5.03;45.70
70695;DHT22;58269;52.246;21.104;2022-12-18T09:27:41;5.19;46.29
70695;DHT22;58269;52.246;21.104;2022-12-18T09:29:42;5.19;44.74
70695;DHT22;58269;52.246;21.104;2022-12-18T09:31:43;5.04;45.70
70695;DHT22;58269;52.246;21.104;2022-12-18T09:33:45;5.22;46.25
70695;DHT22;58269;52.246;21.104;2022-12-18T09:35:46;5.11;44.67
70695;DHT22;58269;52.246;21.104;2022-12-18T09:37:47;5.08;45.85
70695;DHT22;58269;52.246;21.104;2022-12-18T09:39:49;5.27;46.18
70695;DHT22;58269;52.246;21.104;2022-12-18T09:41:52;5.04;44.37
70695;DHT22;58269;52.246;21.104;2022-12-18T09:44:01;4.97;46.20
70695;DHT22;58269;52.246;21.104;2022-12-18T09:46:11;5.08;46.30
70695;DHT22;58269;52.246;21.104;2022-12-18T09:48:31;5.27;46.23
70695;DHT22;58269;52.246;21.104;2022-12-18T09:50:35;5.00;45.20
70695;DHT22;58269;52.246;21.104;2022-12-18T09:52:39;5.19;46.31
70695;DHT22;58269;52.246;21.104;2022-12-18T09:54:41;5.15;45.86
70695;DHT22;58269;52.246;21.104;2022-12-18T09:56:44;5.03;46.26
70695;DHT22;58269;52.246;21.104;2022-12-18T09:58:49;5.27;46.67
70695;DHT22;58269;52.246;21.104;2022-12-18T10:00:53;5.07;43.78
70695;DHT22;58269;52.246;21.104;2022-12-18T10:03:12;5.01;46.19
70695;DHT22;58269;52.246;21.104;2022-12-18T10:05:17;5.31;46.28
70695;DHT22;58269;52.246;21.104;2022-12-18T10:12:23;5.32;47.34
70695;DHT22;58269;52.246;21.104;2022-12-18T10:19:34;4.98;47.83
70695;DHT22;58269;52.246;21.104;2022-12-18T10:23:55;5.00;46.55
70695;DHT22;58269;52.246;21.104;2022-12-18T10:26:08;5.14;47.18
70695;DHT22;58269;52.246;21.104;2022-12-18T10:28:13;5.24;46.32
70695;DHT22;58269;52.246;21.104;2022-12-18T10:30:17;4.97;47.12
70695;DHT22;58269;52.246;21.104;2022-12-18T10:32:24;5.19;47.58
70695;DHT22;58269;52.246;21.104;2022-12-18T10:34:26;5.14;45.55
70695;DHT22;58269;52.246;21.104;2022-12-18T10:36:28;4.98;47.30
70695;DHT22;58269;52.246;21.104;2022-12-18T10:38:31;5.25;47.70
70695;DHT22;58269;52.246;21.104;2022-12-18T10:40:36;5.07;46.72
70695;DHT22;58269;52.246;21.104;2022-12-18T10:42:36;5.18;47.53
70695;DHT22;58269;52.246;21.104;2022-12-18T10:44:38;5.12;46.26
70695;DHT22;58269;52.246;21.104;2022-12-18T10:46:39;5.04;47.17
70695;DHT22;58269;52.246;21.104;2022-12-18T10:50:51;4.91;46.94
70695;DHT22;58269;52.246;21.104;2022-12-18T10:52:55;5.08;47.79
70695;DHT22;58269;52.246;21.104;2022-12-18T10:54:59;5.32;46.82
70695;DHT22;58269;52.246;21.104;2022-12-18T10:57:18;4.97;46.58
70695;DHT22;58269;52.246;21.104;2022-12-18T10:59:20;5.25;47.56
70695;DHT22;58269;52.246;21.104;2022-12-18T11:01:22;5.08;45.05
70695;DHT22;58269;52.246;21.104;2022-12-18T11:03:36;4.98;47.39
70695;DHT22;58269;52.246;21.104;2022-12-18T11:05:38;5.35;47.56
70695;DHT22;58269;52.246;21.104;2022-12-18T11:07:48;4.96;46.14
70695;DHT22;58269;52.246;21.104;2022-12-18T11:10:00;5.17;47.72
70695;DHT22;58269;52.246;21.104;2022-12-18T11:12:04;5.21;45.87
70695;DHT22;58269;52.246;21.104;2022-12-18T11:14:18;4.98;47.12
70695;DHT22;58269;52.246;21.104;2022-12-18T11:16:19;5.31;47.61
70695;DHT22;58269;52.246;21.104;2022-12-18T11:18:35;5.00;45.31
70695;DHT22;58269;52.246;21.104;2022-12-18T11:20:34;5.11;47.49
70695;DHT22;58269;52.246;21.104;2022-12-18T11:22:36;5.34;46.86
70695;DHT22;58269;52.246;21.104;2022-12-18T11:24:39;4.94;45.90
70695;DHT22;58269;52.246;21.104;2022-12-18T11:26:42;5.25;48.01
70695;DHT22;58269;52.246;21.104;2022-12-18T11:28:49;5.17;45.56
70695;DHT22;58269;52.246;21.104;2022-12-18T11:31:54;5.10;47.37
70695;DHT22;58269;52.246;21.104;2022-12-18T11:33:16;5.36;46.83
70695;DHT22;58269;52.246;21.104;2022-12-18T11:35:21;4.94;45.53
70695;DHT22;58269;52.246;21.104;2022-12-18T11:37:23;5.21;47.76
70695;DHT22;58269;52.246;21.104;2022-12-18T11:39:37;5.21;45.88
70695;DHT22;58269;52.246;21.104;2022-12-18T11:41:49;5.05;47.46
70695;DHT22;58269;52.246;21.104;2022-12-18T11:44:08;5.31;46.47
70695;DHT22;58269;52.246;21.104;2022-12-18T11:46:30;4.98;46.64
70695;DHT22;58269;52.246;21.104;2022-12-18T11:48:41;5.28;48.03
70695;DHT22;58269;52.246;21.104;2022-12-18T11:50:54;5.01;45.82
70695;DHT22;58269;52.246;21.104;2022-12-18T11:52:53;5.18;47.86
70695;DHT22;58269;52.246;21.104;2022-12-18T11:54:59;5.24;45.79
70695;DHT22;58269;52.246;21.104;2022-12-18T12:02:01;4.74;45.62
70695;DHT22;58269;52.246;21.104;2022-12-18T12:06:16;4.97;47.74
70695;DHT22;58269;52.246;21.104;2022-12-18T12:15:40;4.48;47.29
70695;DHT22;58269;52.246;21.104;2022-12-18T12:20:26;4.39;47.64
70695;DHT22;58269;52.246;21.104;2022-12-18T12:22:25;4.33;49.38
70695;DHT22;58269;52.246;21.104;2022-12-18T12:24:39;4.28;48.49
70695;DHT22;58269;52.246;21.104;2022-12-18T12:31:36;4.29;48.52
70695;DHT22;58269;52.246;21.104;2022-12-18T12:33:48;4.29;49.41
70695;DHT22;58269;52.246;21.104;2022-12-18T12:40:18;4.36;50.19
70695;DHT22;58269;52.246;21.104;2022-12-18T12:44:48;4.35;49.12
70695;DHT22;58269;52.246;21.104;2022-12-18T12:46:50;4.28;50.38
70695;DHT22;58269;52.246;21.104;2022-12-18T12:48:56;4.23;50.09
70695;DHT22;58269;52.246;21.104;2022-12-18T12:51:00;4.14;50.56
70695;DHT22;58269;52.246;21.104;2022-12-18T12:53:02;4.11;49.36
70695;DHT22;58269;52.246;21.104;2022-12-18T12:55:07;4.04;50.91
70695;DHT22;58269;52.246;21.104;2022-12-18T12:59:35;3.95;50.20
70695;DHT22;58269;52.246;21.104;2022-12-18T13:06:04;3.91;49.62
70695;DHT22;58269;52.246;21.104;2022-12-18T13:08:11;3.87;50.99
70695;DHT22;58269;52.246;21.104;2022-12-18T13:12:24;3.70;50.65
70695;DHT22;58269;52.246;21.104;2022-12-18T13:14:44;3.70;50.75
70695;DHT22;58269;52.246;21.104;2022-12-18T13:16:45;3.66;51.19
70695;DHT22;58269;52.246;21.104;2022-12-18T13:18:55;3.66;51.61
70695;DHT22;58269;52.246;21.104;2022-12-18T13:23:19;3.49;52.50
70695;DHT22;58269;52.246;21.104;2022-12-18T13:25:36;3.47;51.62
70695;DHT22;58269;52.246;21.104;2022-12-18T13:29:46;3.42;52.07
70695;DHT22;58269;52.246;21.104;2022-12-18T13:34:30;3.36;51.67
70695;DHT22;58269;52.246;21.104;2022-12-18T13:36:15;3.38;51.67
70695;DHT22;58269;52.246;21.104;2022-12-18T13:42:52;3.29;52.13
70695;DHT22;58269;52.246;21.104;2022-12-18T13:45:37;3.15;52.86
70695;DHT22;58269;52.246;21.104;2022-12-18T13:47:39;3.09;53.18
70695;DHT22;58269;52.246;21.104;2022-12-18T13:49:43;3.09;52.88
70695;DHT22;58269;52.246;21.104;2022-12-18T13:51:50;3.03;52.88
70695;DHT22;58269;52.246;21.104;2022-12-18T13:53:58;2.96;53.40
70695;DHT22;58269;52.246;21.104;2022-12-18T13:56:00;2.99;53.13
70695;DHT22;58269;52.246;21.104;2022-12-18T13:58:05;3.03;52.39
70695;DHT22;58269;52.246;21.104;2022-12-18T14:00:28;3.03;53.11
70695;DHT22;58269;52.246;21.104;2022-12-18T14:02:30;3.06;52.84
70695;DHT22;58269;52.246;21.104;2022-12-18T14:04:34;3.06;53.37
70695;DHT22;58269;52.246;21.104;2022-12-18T14:06:35;3.13;52.60
70695;DHT22;58269;52.246;21.104;2022-12-18T14:08:39;3.08;53.38
70695;DHT22;58269;52.246;21.104;2022-12-18T14:10:45;3.01;53.56
70695;DHT22;58269;52.246;21.104;2022-12-18T14:12:48;3.01;52.82
70695;DHT22;58269;52.246;21.104;2022-12-18T14:14:59;2.96;53.30
70695;DHT22;58269;52.246;21.104;2022-12-18T14:17:01;2.99;52.18
70695;DHT22;58269;52.246;21.104;2022-12-18T14:19:05;2.99;52.41
70695;DHT22;58269;52.246;21.104;2022-12-18T14:21:16;2.98;53.01
70695;DHT22;58269;52.246;21.104;2022-12-18T14:25:30;2.94;52.67
70695;DHT22;58269;52.246;21.104;2022-12-18T14:27:36;2.84;53.98